Weather at Robert Gabriel Mugabe International Airport

Public forecast

Using degrees Celsius for public forecast. Weather courtesy of forecast.io.

Closest aviation weather report (METAR) to Robert Gabriel Mugabe International Airport

Report is more than 2 hours old.

Closest report is Chimoio Airport, 151.8 nm (281.1 km) ESE.

2024/06/20 17:00 (retrieved 2 hours ago)

FQCH 201700Z /////KT 9999 SCT020 20/12 Q1027

Closest aviation forecast (TAF) to Robert Gabriel Mugabe International Airport

Closest forecast is Chimoio Airport, 151.8 nm (281.1 km) ESE.

2024/06/20 18:00 (retrieved 1 hour ago)

TAF FQCH 201600Z 2018/2118 24006KT 9999 BKN020 TX24/2113Z TN12/2102Z PROB30 TEMPO 2100/2106 2000 BR SCT020 BECMG 2106/2108 18010KT